Aérodrome :
LOGIN :

S'inscrire | Disclaimer

   EN    FR    IT 

 










Légende :    VFR   VFR Marginal   IFR   IFR Intensif   IFR Très Intensif
Visi : 
Plafond : 
>= 8 km
>= 3000ft
5 à 8 km
1000 à 3000 ft
1500m à 5 km
500 à 1000 ft
800 à 1500m
200 à 500 ft
< 800m
< 200 ft
Symboles :   Orages  Brouillard  Fortes neiges  Fortes précipitations  Vent > 20 kt
SIGMETs :   Divers  Orages  Givrage  Turbulence  Onde Orograph.  Cendres Volcan.






- Altitude de l'aérodrome : 479 ft
- Code IATA : DOL


LFRG - Deauville

DERNIER METAR :
  • 050200Z AUTO 17012KT CAVOK 01/01 Q0988

METARs EXPIRÉS :
  • 050130Z AUTO 16010KT 9999 BKN049 01/01 Q0988
  • 050100Z AUTO 16010KT 9999 FEW005 01/00 Q0987
  • 050030Z AUTO 16011KT 9999 FEW007 01/00 Q0987
  • 050000Z AUTO 16009KT 9999 BKN007 01/00 Q0987
  • 042330Z AUTO 18008KT 9999 FEW006 01/00 Q0987

Prévision TAF périmée.
ATIS : +33 2 31 65 65 36



MET'MAP, la Météo Aéronautique d'un coup d'oeil ! - Copyright ORBIFLY Décembre 2007 - Disclaimer

ORBIFLY MET'MAP TEAM :

Programmation & Développement : Alexandra Zaïnal
Sur une idée originale de : Baudouin d'Aumeries
Assistance à la programmation : Marc-Olivier Méhu
Soutien technique & logistique : Manuel Goepfert

Contact : metmap@orbifly.com




SOURCES & CREDITS :

   NOAA